Time;durP1;ratioP1;P1;durP2;ratioP2;P2;SDS_P1;SDS_P2;PMS_P1;PMS_P2;Temp;Humidity;BMP_temperature;BMP_pressure;BME280_temperature;BME280_humidity;BME280_pressure;Samples;Min_cycle;Max_cycle;Signal;HPM_P1;HPM_P2
2021/11/03 00:00:15;;;;;;;7.40;6.70;;;9.30;99.90;;;9.56;78.89;99945.13;4898629;29;20048;-67
2021/11/03 00:02:44;;;;;;;6.72;5.80;;;9.30;99.90;;;9.51;79.98;99941.69;4899003;29;20053;-67
2021/11/03 00:05:15;;;;;;;18.13;6.13;;;9.30;99.90;;;9.49;80.66;99932.91;4898801;29;20578;-68
2021/11/03 00:07:45;;;;;;;11.18;6.05;;;9.40;99.90;;;9.57;81.17;99935.44;4898598;29;20124;-72
2021/11/03 00:10:17;;;;;;;11.30;6.03;;;9.40;99.90;;;9.61;81.01;99938.03;4898693;29;20052;-70
2021/11/03 00:12:45;;;;;;;11.75;6.50;;;9.50;99.90;;;9.79;81.42;99936.84;4898744;29;20060;-70
2021/11/03 00:15:14;;;;;;;10.43;6.15;;;9.60;99.90;;;9.81;81.32;99937.72;4898462;29;20045;-70
2021/11/03 00:17:42;;;;;;;11.27;5.68;;;9.60;99.90;;;9.75;81.45;99929.88;4897326;29;20064;-70
2021/11/03 00:20:12;;;;;;;10.23;6.07;;;9.60;99.90;;;9.71;81.17;99928.19;4897192;29;20068;-70
2021/11/03 00:22:41;;;;;;;9.73;5.80;;;9.60;99.90;;;9.75;81.13;99927.25;4898499;29;20380;-70
2021/11/03 00:25:11;;;;;;;9.18;6.00;;;9.60;99.90;;;9.69;81.20;99925.56;4898207;29;20417;-70
2021/11/03 00:27:39;;;;;;;8.90;5.90;;;9.50;99.90;;;9.65;81.21;99923.00;4898282;29;20494;-70
2021/11/03 00:30:08;;;;;;;9.55;6.82;;;9.50;99.90;;;9.67;81.45;99935.28;4898377;29;20044;-71
2021/11/03 00:32:37;;;;;;;7.53;6.75;;;9.40;99.90;;;9.73;81.17;99940.47;4898341;29;20056;-70
2021/11/03 00:35:07;;;;;;;6.60;5.68;;;9.40;99.90;;;9.75;80.71;99936.03;4896837;29;20507;-71
2021/11/03 00:37:35;;;;;;;7.00;5.90;;;9.40;99.90;;;9.80;80.80;99942.09;4912552;29;20056;-70
2021/11/03 00:40:05;;;;;;;9.50;7.90;;;9.50;99.90;;;9.69;80.68;99930.84;4897030;29;20068;-70
2021/11/03 00:42:36;;;;;;;9.57;7.60;;;9.60;99.90;;;9.91;80.86;99937.50;4912667;29;20048;-70
2021/11/03 00:45:06;;;;;;;7.38;6.55;;;9.60;99.90;;;9.90;80.42;99935.78;4898202;29;20052;-70
2021/11/03 00:47:35;;;;;;;9.93;6.57;;;9.60;99.90;;;9.79;80.47;99915.72;4896876;29;20056;-70
2021/11/03 00:50:04;;;;;;;7.13;6.10;;;9.60;99.90;;;9.88;80.42;99941.97;4897552;29;20048;-70
2021/11/03 00:52:33;;;;;;;9.07;6.80;;;9.60;99.90;;;9.93;80.54;99938.34;4896938;29;20048;-70
2021/11/03 00:55:01;;;;;;;9.07;7.35;;;9.60;99.90;;;9.91;80.39;99939.31;4896789;29;20566;-70
2021/11/03 00:57:30;;;;;;;9.38;6.85;;;9.60;99.90;;;9.93;80.43;99934.84;4897927;29;20514;-70
2021/11/03 01:00:00;;;;;;;8.40;7.13;;;9.60;99.90;;;9.92;80.28;99935.75;4896571;29;20076;-70
2021/11/03 01:02:30;;;;;;;8.27;7.47;;;9.60;99.90;;;9.91;79.99;99932.22;4896603;29;20060;-70
2021/11/03 01:04:59;;;;;;;8.45;6.13;;;9.60;99.90;;;9.81;79.37;99933.28;4897912;29;20414;-70
2021/11/03 01:07:28;;;;;;;8.77;6.45;;;9.60;99.90;;;9.87;79.70;99941.09;4897755;29;20075;-70
2021/11/03 01:09:56;;;;;;;8.20;6.95;;;9.60;99.90;;;9.96;79.85;99938.31;4897676;29;20049;-70
2021/11/03 01:12:25;;;;;;;13.73;8.15;;;9.60;99.90;;;9.88;79.63;99927.00;4897645;29;20049;-70
2021/11/03 01:14:53;;;;;;;8.05;7.15;;;9.60;99.90;;;9.91;79.23;99934.88;4897567;29;20096;-71
2021/11/03 01:17:23;;;;;;;7.63;6.75;;;9.60;99.90;;;9.95;79.29;99939.22;4897547;29;20123;-70
2021/11/03 01:19:51;;;;;;;7.73;6.90;;;9.60;99.90;;;9.84;78.60;99941.16;4897787;29;20052;-70
2021/11/03 01:22:19;;;;;;;8.63;7.53;;;9.60;99.90;;;9.75;78.72;99941.31;4897671;29;20074;-70
2021/11/03 01:24:48;;;;;;;11.13;7.68;;;9.60;99.90;;;9.75;79.13;99943.09;4897573;29;20060;-70
2021/11/03 01:27:16;;;;;;;9.50;8.27;;;9.50;99.90;;;9.69;78.96;99941.41;4897739;29;20044;-70
2021/11/03 01:29:45;;;;;;;9.65;8.52;;;9.50;99.90;;;9.73;79.52;99953.69;4897547;29;20558;-70
2021/11/03 01:32:13;;;;;;;13.07;8.73;;;9.50;99.90;;;9.75;79.28;99948.38;4897456;29;20049;-70
2021/11/03 01:34:43;;;;;;;9.77;8.55;;;9.50;99.90;;;9.79;79.62;99950.06;4897586;29;20498;-70
2021/11/03 01:37:12;;;;;;;14.27;8.23;;;9.50;99.90;;;9.70;79.71;99945.78;4897502;29;20055;-70
2021/11/03 01:39:41;;;;;;;12.57;8.55;;;9.50;99.90;;;9.71;79.97;99947.53;4896490;29;20451;-70
2021/11/03 01:42:10;;;;;;;11.18;8.40;;;9.50;99.90;;;9.70;79.81;99942.25;4897245;29;20093;-70
2021/11/03 01:44:38;;;;;;;9.90;8.68;;;9.40;99.90;;;9.67;79.84;99943.22;4896330;29;20068;-70
2021/11/03 01:47:41;;;;;;;11.45;7.97;;;9.50;99.90;;;9.66;80.01;99959.94;4911952;29;20055;-70
2021/11/03 01:50:22;;;;;;;11.68;9.52;;;9.40;99.90;;;9.69;79.89;99962.53;4911910;29;20053;-70
2021/11/03 01:52:58;;;;;;;10.15;8.93;;;9.40;99.90;;;9.59;80.12;99963.56;4897593;29;20143;-70
2021/11/03 01:55:28;;;;;;;11.05;9.05;;;9.40;99.90;;;9.56;79.92;99968.88;4896197;29;20410;-70
2021/11/03 01:58:03;;;;;;;21.77;9.68;;;9.30;99.90;;;9.62;80.25;99971.44;4897533;29;20053;-70
2021/11/03 02:00:35;;;;;;;11.63;8.98;;;9.30;99.90;;;8.94;80.14;99853.69;4898328;29;20164;-70
2021/11/03 02:03:08;;;;;;;10.55;9.32;;;9.40;99.90;;;9.70;80.43;99966.91;4915528;29;20056;-69
2021/11/03 02:51:58;;;;;;;14.80;11.10;;;9.30;99.90;;;9.46;83.09;99914.50;5894000;23;20024;31
2021/11/03 02:54:29;;;;;;;16.88;11.77;;;9.20;99.90;;;9.43;83.74;99911.91;4822089;29;20065;-64
2021/11/03 02:57:00;;;;;;;15.55;11.27;;;9.10;99.90;;;9.55;83.95;99905.56;4824596;29;20503;-64
2021/11/03 02:59:29;;;;;;;16.77;12.05;;;9.30;99.90;;;9.64;83.60;99905.44;4824532;29;20503;-64
2021/11/03 03:02:00;;;;;;;16.17;13.05;;;9.40;99.90;;;9.72;83.09;99901.75;4826004;29;20085;-64
2021/11/03 03:04:35;;;;;;;11.88;10.45;;;9.50;99.90;;;9.80;82.85;99897.22;4809607;29;20050;-64
2021/11/03 03:07:06;;;;;;;12.13;9.50;;;9.50;99.90;;;9.72;82.19;99904.38;4809640;29;20051;-64
2021/11/03 03:09:36;;;;;;;12.70;9.43;;;9.50;99.90;;;9.54;81.62;99893.28;4824519;29;20144;-64
2021/11/03 03:12:11;;;;;;;11.65;10.43;;;9.50;99.90;;;9.61;81.56;99903.69;4809333;29;20054;-64
2021/11/03 03:14:46;;;;;;;10.98;9.88;;;9.40;99.90;;;9.64;81.13;99926.56;4825877;29;20054;-63
2021/11/03 03:17:17;;;;;;;14.25;10.13;;;9.40;99.90;;;9.57;81.08;99887.94;4824465;29;20047;-64
2021/11/03 03:19:47;;;;;;;10.60;9.50;;;9.40;99.90;;;9.56;80.97;99897.59;4809329;29;20258;-64
2021/11/03 03:22:19;;;;;;;12.95;9.85;;;9.40;99.90;;;9.56;80.73;99902.03;4824315;29;20103;-64
2021/11/03 03:24:54;;;;;;;12.13;10.77;;;9.30;99.90;;;9.56;80.59;99897.59;4809441;29;20054;-64
2021/11/03 03:27:25;;;;;;;11.70;10.50;;;9.30;99.90;;;9.57;80.53;99902.00;4824523;29;20137;-64
2021/11/03 03:29:54;;;;;;;12.75;10.73;;;9.40;99.90;;;9.50;80.63;99895.09;4824311;29;20164;-65
2021/11/03 03:32:23;;;;;;;12.82;10.77;;;9.30;99.90;;;9.41;80.51;99899.59;4824154;29;20043;-64
2021/11/03 03:34:53;;;;;;;13.23;10.43;;;9.20;99.90;;;9.41;81.13;99891.69;4825486;29;20078;-64
2021/11/03 03:37:24;;;;;;;12.23;10.82;;;9.20;99.90;;;9.40;81.27;99892.59;4809215;29;20046;-65
2021/11/03 03:39:56;;;;;;;12.75;10.80;;;9.10;99.90;;;9.41;80.94;99889.94;4824321;29;20610;-64
2021/11/03 03:42:24;;;;;;;12.77;11.38;;;9.10;99.90;;;9.42;81.14;99889.06;4825230;29;20061;-64
2021/11/03 03:44:53;;;;;;;12.45;10.23;;;9.10;99.90;;;9.31;81.14;99882.19;4823948;29;20050;-64
2021/11/03 03:47:23;;;;;;;11.20;10.10;;;9.10;99.90;;;9.36;81.12;99894.44;4808801;29;20050;-64
2021/11/03 03:49:55;;;;;;;11.88;10.27;;;9.10;99.90;;;9.28;81.24;99896.31;4825152;29;20480;-67
2021/11/03 03:52:23;;;;;;;13.38;9.05;;;9.10;99.90;;;9.20;80.83;99889.38;4824997;29;20125;-64
2021/11/03 03:54:52;;;;;;;11.32;10.23;;;9.00;99.90;;;9.18;80.85;99884.13;4825135;29;20492;-65
2021/11/03 03:57:22;;;;;;;12.43;10.05;;;9.00;99.90;;;9.25;80.65;99896.34;4808503;29;20046;-64
2021/11/03 03:59:50;;;;;;;12.32;10.93;;;9.00;99.90;;;9.29;80.35;99910.38;4808735;29;20050;-64
2021/11/03 04:02:19;;;;;;;14.32;11.35;;;9.10;99.90;;;9.34;81.02;99919.09;4823620;29;20053;-64
2021/11/03 04:04:48;;;;;;;14.75;11.40;;;9.10;99.90;;;9.49;80.39;99917.09;4824812;29;20054;-65
2021/11/03 04:07:17;;;;;;;11.40;8.85;;;9.20;99.90;;;9.17;79.38;99921.09;4824588;29;20050;-61
2021/11/03 04:09:45;;;;;;;12.85;10.63;;;9.00;99.90;;;9.01;79.58;99918.69;4824781;29;20038;-61
2021/11/03 04:12:13;;;;;;;11.35;10.15;;;8.80;99.90;;;8.93;80.14;99927.56;4824844;29;20054;-61
2021/11/03 04:14:43;;;;;;;13.80;10.95;;;8.70;99.90;;;8.93;80.46;99931.09;4824496;29;20042;-61
2021/11/03 04:17:12;;;;;;;15.68;12.40;;;8.70;99.90;;;9.04;80.71;99930.94;4823527;29;20050;-61
2021/11/03 04:19:41;;;;;;;17.38;13.00;;;8.80;99.90;;;9.17;80.68;99929.00;4823625;29;20525;-61
2021/11/03 04:22:09;;;;;;;18.02;13.07;;;8.90;99.90;;;9.28;80.83;99935.88;4823375;29;20141;-61
2021/11/03 04:24:43;;;;;;;16.00;13.45;;;9.00;99.90;;;9.31;81.17;99933.19;4807593;29;20050;-61
2021/11/03 04:27:12;;;;;;;13.38;11.85;;;9.10;99.90;;;9.22;80.86;99937.72;4824595;29;20046;-61
2021/11/03 04:29:43;;;;;;;10.30;9.18;;;9.00;99.90;;;9.00;80.12;99958.25;4807724;29;20039;-61
2021/11/03 04:32:14;;;;;;;7.82;7.03;;;8.80;99.90;;;8.79;79.67;99953.22;4823299;29;20073;-62
2021/11/03 04:34:43;;;;;;;28.70;11.82;;;8.70;99.90;;;8.05;81.16;99954.00;4823240;29;20054;-61
2021/11/03 04:37:12;;;;;;;10.27;9.32;;;8.00;99.90;;;7.47;83.71;99940.41;4807909;29;20081;-61
2021/11/03 04:39:42;;;;;;;13.70;12.23;;;7.40;99.90;;;7.59;87.25;99945.59;4823150;29;20058;-63
2021/11/03 04:42:11;;;;;;;13.98;12.05;;;7.30;99.90;;;7.73;87.63;99949.00;4807793;29;20118;-61
2021/11/03 04:44:41;;;;;;;13.90;12.30;;;7.40;99.90;;;7.88;86.99;99951.50;4823102;29;20107;-61
2021/11/03 04:47:12;;;;;;;13.65;11.93;;;7.60;99.90;;;7.73;86.71;99919.16;4824319;29;20046;-61
2021/11/03 04:49:42;;;;;;;12.48;11.15;;;7.70;99.90;;;8.06;86.40;99961.00;4822953;29;20465;-62
2021/11/03 04:52:11;;;;;;;12.88;11.55;;;7.80;99.90;;;8.05;85.83;99962.75;4807294;29;20058;-61
2021/11/03 04:54:39;;;;;;;13.25;10.82;;;7.90;99.90;;;8.13;85.37;99968.84;4807973;29;20050;-62
2021/11/03 04:57:15;;;;;;;13.32;11.10;;;7.90;99.90;;;8.17;85.67;99962.66;4807875;29;20050;-61
2021/11/03 04:59:45;;;;;;;14.60;12.65;;;8.00;99.90;;;8.23;85.57;99966.13;4822934;29;20062;-62
2021/11/03 05:02:16;;;;;;;17.20;13.18;;;8.10;99.90;;;8.30;85.15;99962.56;4824040;29;20057;-62
2021/11/03 05:04:45;;;;;;;18.05;12.35;;;8.10;99.90;;;8.38;85.28;99968.66;4807622;29;20385;-62
2021/11/03 05:07:14;;;;;;;17.30;12.25;;;8.20;99.90;;;8.40;84.80;99965.09;4823788;29;20129;-61
2021/11/03 05:09:43;;;;;;;14.07;12.10;;;8.20;99.90;;;8.48;84.79;99967.66;4823976;29;20053;-62
2021/11/03 05:12:12;;;;;;;14.45;11.60;;;8.20;99.90;;;8.50;84.40;99960.59;4824006;29;20097;-62
2021/11/03 05:14:40;;;;;;;15.77;13.75;;;8.30;99.90;;;8.51;84.20;99970.25;4807430;29;20095;-61
2021/11/03 05:17:10;;;;;;;15.30;13.32;;;8.30;99.90;;;8.43;84.35;99982.63;4822696;29;20085;-61
2021/11/03 05:19:40;;;;;;;13.77;12.35;;;8.20;99.90;;;8.27;84.90;99978.41;4822823;29;20039;-62
2021/11/03 05:22:19;;;;;;;15.73;13.93;;;8.10;99.90;;;8.05;85.65;99972.44;4807593;29;20126;-62
2021/11/03 05:24:48;;;;;;;17.05;15.25;;;7.90;99.90;;;8.06;86.26;99976.81;4807759;29;20050;-62
2021/11/03 05:27:16;;;;;;;17.73;15.63;;;7.80;99.90;;;8.18;86.88;99974.94;4823632;29;20496;-63
2021/11/03 05:29:46;;;;;;;15.95;14.18;;;7.90;99.90;;;8.20;86.45;99978.44;4823845;29;20046;-62
2021/11/03 05:32:14;;;;;;;16.95;15.00;;;8.00;99.90;;;8.00;86.91;99972.47;4823864;29;20145;-62
2021/11/03 05:34:45;;;;;;;19.00;15.75;;;7.90;99.90;;;7.96;87.50;99972.50;4823836;29;20050;-62
2021/11/03 05:37:15;;;;;;;19.70;16.17;;;7.80;99.90;;;7.74;88.52;99971.78;4826909;29;20137;-62
2021/11/03 05:39:44;;;;;;;;;;;7.60;99.90;;;7.67;89.12;99972.72;4827567;29;20054;-62
2021/11/03 05:42:13;;;;;;;23.95;17.42;;;7.50;99.90;;;7.74;89.08;99970.94;4827377;29;19998;-63
2021/11/03 05:44:41;;;;;;;21.50;18.73;;;7.50;99.90;;;7.96;88.95;99968.13;4827073;29;20050;-62
2021/11/03 05:47:19;;;;;;;20.15;17.65;;;7.70;99.90;;;8.15;88.74;99974.06;4827057;29;20383;-62
2021/11/03 05:49:49;;;;;;;21.95;18.45;;;7.90;99.90;;;8.06;88.40;99954.00;4810981;29;20054;-63
2021/11/03 05:52:18;;;;;;;23.58;18.33;;;8.00;99.90;;;8.30;87.74;99979.25;4827031;29;20042;-62
2021/11/03 05:54:47;;;;;;;24.60;19.20;;;8.10;99.90;;;8.35;87.70;99980.06;4827512;29;20077;-62
2021/11/03 05:57:22;;;;;;;22.83;18.58;;;8.10;99.90;;;8.40;87.28;99980.03;4827187;29;20050;-63
2021/11/03 05:59:51;;;;;;;24.10;20.58;;;8.20;99.90;;;8.45;87.38;99984.38;4811306;29;20527;-62
2021/11/03 06:02:20;;;;;;;24.23;20.80;;;8.30;99.90;;;8.49;86.92;99985.22;4827403;29;20587;-63
2021/11/03 06:04:50;;;;;;;23.42;19.77;;;8.40;99.90;;;8.56;87.19;99973.69;4827049;29;20051;-62
2021/11/03 06:07:21;;;;;;;26.77;19.08;;;8.40;99.90;;;8.61;86.36;99979.81;4825905;29;20058;-62
2021/11/03 06:09:55;;;;;;;23.10;18.85;;;8.40;99.90;;;8.63;85.75;99973.63;4826870;29;20427;-62
2021/11/03 06:12:24;;;;;;;20.73;17.77;;;8.40;99.90;;;8.63;85.64;99973.63;4826542;29;20057;-63
2021/11/03 06:14:53;;;;;;;22.08;19.35;;;8.40;99.90;;;8.66;85.44;99963.06;4826748;29;20469;-63
2021/11/03 06:17:21;;;;;;;24.85;19.52;;;8.40;99.90;;;8.72;85.48;99975.28;4826732;29;20111;-62
2021/11/03 06:19:51;;;;;;;25.05;20.80;;;8.50;99.90;;;8.71;85.46;99971.78;4826394;29;20138;-62
2021/11/03 06:22:19;;;;;;;23.15;20.23;;;8.50;99.90;;;8.73;85.45;99974.41;4826610;29;20050;-63
2021/11/03 06:24:55;;;;;;;21.70;19.25;;;8.50;99.90;;;8.80;85.16;99978.72;4826262;29;20088;-62
2021/11/03 06:27:24;;;;;;;21.52;18.83;;;8.50;99.90;;;8.84;84.14;99973.41;4826485;29;20053;-62
2021/11/03 06:29:53;;;;;;;24.50;20.10;;;8.60;99.90;;;8.87;84.53;99975.09;4826165;29;20081;-62
2021/11/03 06:32:21;;;;;;;17.83;15.90;;;8.60;99.90;;;8.74;84.00;99977.03;4826007;29;20133;-63
2021/11/03 06:34:51;;;;;;;25.52;20.45;;;8.50;99.90;;;8.73;84.36;99977.06;4826003;29;20084;-62
2021/11/03 06:37:19;;;;;;;20.23;15.97;;;8.50;99.90;;;8.59;83.10;99986.88;4826254;29;20046;-62
2021/11/03 06:39:48;;;;;;;22.15;16.88;;;8.40;99.90;;;8.61;83.63;99979.81;4826657;29;20054;-62
2021/11/03 06:42:16;;;;;;;26.67;17.55;;;8.30;99.90;;;8.59;83.77;99978.97;4826243;29;20054;-63
2021/11/03 06:44:44;;;;;;;39.63;13.38;;;8.30;99.90;;;8.27;82.84;99975.75;4825875;29;20050;-62
2021/11/03 06:47:13;;;;;;;15.38;11.75;;;8.10;99.90;;;8.10;81.91;99975.91;4825361;29;20129;-63
2021/11/03 06:49:42;;;;;;;20.38;15.27;;;7.80;99.90;;;8.04;83.34;99978.56;4826002;29;20050;-63
2021/11/03 06:52:12;;;;;;;18.98;16.95;;;7.80;99.90;;;8.08;84.46;99970.66;4825455;29;20046;-63
2021/11/03 06:54:41;;;;;;;16.10;14.23;;;7.80;99.90;;;8.18;84.77;99974.94;4826297;29;20051;-63
2021/11/03 06:57:09;;;;;;;19.13;15.18;;;7.90;99.90;;;8.20;85.01;99978.44;4825748;29;20089;-64
2021/11/03 06:59:43;;;;;;;16.50;14.63;;;7.90;99.90;;;8.29;84.87;99981.88;4825715;29;20057;-63
2021/11/03 07:02:17;;;;;;;18.02;14.95;;;8.00;99.90;;;8.30;85.13;99967.84;4809585;29;20070;-63
2021/11/03 07:04:46;;;;;;;18.73;16.58;;;8.10;99.90;;;8.28;84.31;99970.50;4825788;29;20050;-63
2021/11/03 07:07:15;;;;;;;29.35;18.00;;;8.10;99.90;;;8.30;84.07;99970.47;4824711;29;20497;-64
2021/11/03 07:09:44;;;;;;;25.87;18.93;;;8.10;99.90;;;8.32;83.91;99966.06;4826287;29;20058;-63
2021/11/03 07:12:12;;;;;;;21.60;18.60;;;8.10;99.90;;;8.34;83.81;99964.28;4825402;29;20576;-64
2021/11/03 07:14:41;;;;;;;24.33;19.67;;;8.10;99.90;;;8.43;84.01;99970.34;4825461;29;20050;-64
2021/11/03 07:17:11;;;;;;;27.75;20.73;;;8.10;99.90;;;8.50;84.01;99974.66;4825329;29;20086;-63
2021/11/03 07:19:42;;;;;;;25.52;20.30;;;8.20;99.90;;;8.57;83.44;99973.72;4825482;29;20420;-63
2021/11/03 07:22:11;;;;;;;27.15;21.23;;;8.30;99.90;;;8.62;83.70;99973.63;4825529;29;20504;-64
2021/11/03 07:24:41;;;;;;;26.63;20.67;;;8.40;99.90;;;8.68;83.47;99965.66;4825418;29;20080;-65
2021/11/03 07:27:10;;;;;;;27.42;19.33;;;8.40;99.90;;;8.63;83.53;99981.53;4825246;29;20046;-63
2021/11/03 07:29:41;;;;;;;24.00;19.52;;;8.40;99.90;;;8.69;83.77;99989.38;4825413;29;20051;-64
2021/11/03 07:32:11;;;;;;;21.35;15.88;;;8.40;99.90;;;8.33;81.67;99957.25;4825089;29;20488;-64
2021/11/03 07:34:39;;;;;;;16.98;13.55;;;8.20;99.90;;;8.00;81.02;99985.63;4824953;29;20078;-66
2021/11/03 07:37:07;;;;;;;20.10;17.58;;;7.80;99.90;;;7.95;81.91;99986.56;4825052;29;20045;-65
2021/11/03 07:39:36;;;;;;;17.83;16.02;;;7.70;99.90;;;8.19;82.56;99988.97;4825051;29;20050;-66
2021/11/03 07:42:07;;;;;;;16.77;14.65;;;7.90;99.90;;;8.35;83.04;99981.84;4824934;29;20078;-67
2021/11/03 07:44:40;;;;;;;20.88;16.98;;;8.00;99.90;;;8.48;83.16;99999.28;4823849;29;20050;-66
2021/11/03 07:47:08;;;;;;;18.33;15.73;;;8.20;99.90;;;8.55;83.88;99995.69;4825095;29;20087;-67
2021/11/03 07:49:37;;;;;;;14.23;12.68;;;8.30;99.90;;;8.70;83.49;99984.97;4824819;29;20451;-67
2021/11/03 07:52:06;;;;;;;13.88;12.32;;;8.50;99.90;;;9.08;83.08;100003.84;4808320;29;20074;-66
2021/11/03 07:54:35;;;;;;;16.00;13.13;;;8.80;99.90;;;9.24;81.37;99997.50;4824946;29;20047;-66
2021/11/03 07:57:06;;;;;;;14.80;13.20;;;9.00;99.90;;;9.42;80.00;100001.66;4824728;29;20078;-66
2021/11/03 07:59:34;;;;;;;;;;;9.10;99.90;;;9.59;79.57;100010.22;4824292;29;20053;-66
2021/11/03 08:02:03;;;;;;;14.20;12.70;;;9.30;99.90;;;9.65;78.41;100007.47;4824662;29;19949;-64
2021/11/03 08:04:32;;;;;;;15.05;13.45;;;9.40;99.90;;;9.54;77.43;100014.69;4824812;29;20050;-65
2021/11/03 08:07:00;;;;;;;14.88;13.23;;;9.30;99.90;;;9.36;75.63;100018.44;4808509;29;20054;-63
2021/11/03 08:09:30;;;;;;;21.50;15.85;;;9.20;99.90;;;8.88;74.50;100016.41;4808352;29;20064;-64
2021/11/03 08:12:01;;;;;;;17.08;15.27;;;8.90;99.90;;;8.71;75.15;100023.66;4824456;29;20057;-65
2021/11/03 08:14:32;;;;;;;23.30;16.35;;;8.60;99.90;;;8.56;75.25;100018.50;4825090;29;20130;-65
2021/11/03 08:17:05;;;;;;;20.40;15.15;;;8.40;99.90;;;8.49;75.62;100024.72;4824540;29;20061;-67
2021/11/03 08:19:41;;;;;;;18.20;15.95;;;8.30;99.90;;;8.42;75.82;100023.91;4824488;29;20408;-65
2021/11/03 08:22:12;;;;;;;15.00;13.40;;;8.20;99.90;;;8.40;75.50;100027.47;4825013;29;20076;-65
2021/11/03 08:24:41;;;;;;;16.13;13.85;;;8.10;99.90;;;8.33;75.90;100025.75;4824502;29;20501;-65
2021/11/03 08:27:09;;;;;;;15.60;13.98;;;8.00;99.90;;;8.27;77.76;100015.28;4824342;29;20051;-66
2021/11/03 08:29:39;;;;;;;14.48;12.73;;;8.00;99.90;;;8.59;78.74;100042.22;4824511;29;20050;-66
2021/11/03 08:32:11;;;;;;;17.27;15.48;;;8.20;99.90;;;8.72;79.19;100038.56;4824241;29;20458;-65
2021/11/03 08:34:40;;;;;;;16.85;14.75;;;8.40;99.90;;;8.94;78.68;100040.94;4824793;29;20071;-65
2021/11/03 08:37:13;;;;;;;13.95;12.60;;;8.60;99.90;;;9.16;77.26;100038.03;4824235;29;20053;-63
2021/11/03 08:39:45;;;;;;;13.35;12.15;;;8.80;99.90;;;9.31;75.74;100041.38;4824303;29;20115;-64
2021/11/03 08:42:13;;;;;;;15.77;14.27;;;9.00;99.90;;;9.73;76.43;100043.47;4824263;29;20054;-65
2021/11/03 08:44:43;;;;;;;18.15;16.30;;;9.40;99.90;;;10.00;77.38;100044.81;4824386;29;20107;-64
2021/11/03 08:47:13;;;;;;;15.80;14.23;;;9.60;99.90;;;10.12;76.64;100047.28;4824322;29;20520;-64
2021/11/03 08:49:41;;;;;;;18.30;16.50;;;9.80;99.90;;;10.08;76.55;100044.69;4824357;29;20133;-64
2021/11/03 08:52:10;;;;;;;16.25;14.65;;;9.80;99.90;;;9.94;76.81;100040.50;4824068;29;20084;-65
2021/11/03 08:54:41;;;;;;;15.82;14.30;;;9.70;99.90;;;9.88;77.29;100042.34;4824709;29;20117;-64
2021/11/03 08:57:22;;;;;;;16.35;14.75;;;9.60;99.90;;;9.96;77.28;100046.63;4824081;29;20065;-64
2021/11/03 08:59:58;;;;;;;22.10;18.48;;;9.70;99.90;;;10.11;77.25;100039.38;4823147;29;20065;-61
2021/11/03 09:02:27;;;;;;;22.25;18.20;;;9.80;99.90;;;9.80;77.41;99938.59;4824329;29;20123;-63
2021/11/03 09:04:56;;;;;;;26.25;23.42;;;10.10;99.90;;;10.70;77.41;100045.38;4807780;29;20400;-64
2021/11/03 09:07:25;;;;;;;26.85;23.95;;;10.40;99.90;;;11.15;76.59;100046.28;4823970;29;20057;-62
2021/11/03 09:09:53;;;;;;;30.50;23.15;;;10.80;99.90;;;11.19;74.96;100049.75;4823989;29;20454;-62
2021/11/03 09:12:22;;;;;;;26.50;22.77;;;11.00;99.90;;;11.11;74.73;100060.47;4824060;29;20136;-62
2021/11/03 09:14:50;;;;;;;27.85;23.70;;;10.90;99.90;;;11.25;75.20;100063.72;4824186;29;20126;-62
2021/11/03 09:17:21;;;;;;;29.63;23.25;;;11.00;99.90;;;11.41;74.92;100061.63;4824163;29;20046;-62
2021/11/03 09:19:50;;;;;;;31.13;23.73;;;11.10;99.90;;;11.37;75.27;100060.84;4824122;29;20065;-62
2021/11/03 09:22:18;;;;;;;26.98;23.58;;;11.10;99.90;;;11.46;75.25;100067.69;4823645;29;20080;-62
2021/11/03 09:24:47;;;;;;;30.08;23.92;;;11.20;99.90;;;11.51;75.40;100069.38;4823897;29;20047;-62
2021/11/03 09:27:15;;;;;;;26.50;23.23;;;11.30;99.90;;;11.81;75.73;100067.84;4823927;29;20046;-62
2021/11/03 09:29:46;;;;;;;32.25;25.48;;;11.50;99.90;;;12.01;75.45;100070.94;4822628;29;20496;-62
2021/11/03 09:32:23;;;;;;;29.83;25.17;;;11.70;99.90;;;11.84;75.53;100069.56;4823841;29;20054;-62
2021/11/03 09:34:59;;;;;;;31.88;25.55;;;11.70;99.90;;;11.99;75.94;100067.44;4823888;29;20076;-62
2021/11/03 09:37:33;;;;;;;31.33;26.73;;;11.70;99.90;;;12.34;75.98;100079.88;4823818;29;20042;-62
2021/11/03 09:40:02;;;;;;;37.13;28.30;;;12.00;99.90;;;12.61;75.16;100079.19;4808108;29;20054;-62
2021/11/03 09:42:30;;;;;;;36.15;28.48;;;12.30;99.90;;;13.10;75.14;100085.00;4823429;29;20046;-62
2021/11/03 09:45:12;;;;;;;31.15;26.92;;;12.80;99.90;;;13.50;73.90;100069.66;4823760;29;20077;-62
2021/11/03 09:48:03;;;;;;;35.50;28.40;;;13.20;99.90;;;13.91;72.73;100084.38;4823677;29;20046;-63
2021/11/03 09:50:37;;;;;;;38.35;24.60;;;13.60;99.90;;;14.11;71.38;100091.75;4823461;29;20134;-62
2021/11/03 09:53:25;;;;;;;29.92;25.35;;;13.90;99.90;;;14.40;71.50;100092.56;4823401;29;20463;-63
2021/11/03 09:55:54;;;;;;;31.58;24.42;;;14.10;99.90;;;14.76;69.70;100089.63;4823165;29;20053;-63
2021/11/03 09:58:44;;;;;;;28.67;24.05;;;14.50;99.90;;;15.20;68.62;100095.16;4807145;29;20471;-62
2021/11/03 10:01:26;;;;;;;28.27;24.87;;;14.90;99.90;;;15.36;67.25;100096.34;4822344;29;20067;-62
2021/11/03 10:04:22;;;;;;;30.25;24.83;;;15.20;99.90;;;15.46;66.30;100088.91;4823553;29;20077;-62
2021/11/03 10:07:00;;;;;;;29.23;23.73;;;15.30;99.90;;;15.18;66.48;100089.00;4823184;29;20058;-62
2021/11/03 10:09:29;;;;;;;30.48;24.50;;;15.00;99.90;;;15.15;66.97;100090.91;4823194;29;20050;-62
2021/11/03 10:11:58;;;;;;;29.75;23.23;;;15.00;99.90;;;15.02;67.57;100092.28;4823605;29;20084;-64
2021/11/03 10:14:29;;;;;;;31.00;24.35;;;14.80;99.90;;;15.06;68.03;100099.25;4823092;29;20053;-62
2021/11/03 10:17:21;;;;;;;31.65;24.05;;;14.80;99.90;;;15.03;68.11;100096.66;4823380;29;20042;-62
2021/11/03 10:19:53;;;;;;;29.35;22.20;;;14.80;99.90;;;14.97;67.54;100102.19;4822024;29;20050;-62
2021/11/03 10:22:34;;;;;;;24.27;20.98;;;14.80;99.90;;;14.72;68.14;100101.28;4809024;29;20062;-62
2021/11/03 10:25:24;;;;;;;29.27;21.88;;;14.40;99.90;;;14.30;70.03;100101.78;4826553;29;20160;-62
2021/11/03 10:27:59;;;;;;;28.77;22.50;;;14.00;99.90;;;14.46;69.78;100096.81;4825030;29;20429;-62
2021/11/03 10:30:37;;;;;;;28.30;22.75;;;14.10;99.90;;;14.19;70.64;100101.22;4826301;29;20093;-62
2021/11/03 10:33:20;;;;;;;31.33;23.30;;;13.90;99.90;;;14.06;71.01;100099.84;4825899;29;20047;-62
2021/11/03 10:36:00;;;;;;;23.73;20.92;;;13.80;99.90;;;14.29;70.63;100102.69;4826293;29;20068;-62
2021/11/03 10:38:45;;;;;;;23.15;19.80;;;14.00;99.90;;;14.38;70.48;100085.59;4826270;29;20046;-63
2021/11/03 10:41:22;;;;;;;27.88;23.38;;;14.10;99.90;;;14.46;70.41;100099.47;4825967;29;20050;-62
2021/11/03 10:44:08;;;;;;;28.13;22.85;;;14.20;99.90;;;14.50;70.33;100100.28;4825982;29;20092;-61
2021/11/03 10:46:52;;;;;;;31.50;21.98;;;14.20;99.90;;;14.58;69.75;100091.09;4826363;29;20110;-62
2021/11/03 10:52:46;;;;;;;32.05;21.15;;;14.30;99.90;;;14.74;69.47;100095.00;4825433;29;20509;-62
2021/11/03 10:55:23;;;;;;;26.05;21.65;;;14.50;99.90;;;14.76;69.22;100087.84;4824660;29;20054;-62
2021/11/03 10:58:03;;;;;;;27.23;21.05;;;14.40;99.90;;;14.72;68.76;100094.19;4825767;29;20413;-63
2021/11/03 11:00:35;;;;;;;26.02;20.20;;;14.50;99.90;;;14.74;68.86;100088.81;4825631;29;20403;-62
2021/11/03 11:03:13;;;;;;;30.80;20.48;;;14.50;99.90;;;14.67;68.87;100071.31;4825534;29;20061;-63
2021/11/03 11:05:48;;;;;;;23.33;20.00;;;14.50;99.90;;;14.75;68.66;100083.44;4825733;29;20099;-62
2021/11/03 11:08:23;;;;;;;24.23;20.55;;;14.50;99.90;;;14.79;68.97;100071.75;4825633;29;20103;-62
2021/11/03 11:10:59;;;;;;;27.52;21.75;;;14.50;99.90;;;14.92;69.41;100078.41;4825864;29;20108;-62
2021/11/03 11:13:31;;;;;;;27.27;21.85;;;14.60;99.90;;;15.23;70.35;100079.03;4825402;29;20078;-65
2021/11/03 11:16:06;;;;;;;24.52;20.73;;;14.90;99.90;;;15.44;69.58;100081.91;4825749;29;20054;-63
2021/11/03 11:18:57;;;;;;;26.17;19.80;;;15.20;99.90;;;15.57;67.88;100075.19;4825381;29;20050;-63
2021/11/03 11:21:44;;;;;;;22.98;18.55;;;15.30;99.90;;;15.62;66.99;100084.75;4825329;29;20458;-63
2021/11/03 11:24:22;;;;;;;25.55;18.95;;;15.40;99.90;;;15.88;66.94;100078.44;4825530;29;20050;-63